Slocum Growler on mission OSNAP 7 Piloting

  • Public vehicle
  • Serial Number unit_408

  • Deployed: 2016/10/01 00:00:00 UTC (1111 days ago) by esdu
  • Recovered: 2017/02/10 17:00:00 UTC (979 days ago)
  • Time at Sea: 4 months
  • Profiles Performed: 3370

Near Real-Time Data

 
conductivity
density
potential_density
potential_temperature
salinity
sound_velocity

Communication Log

# Updated Depth Speed Plots
1128925 2017-02-10 20:01:29 UTC (979 days ago)
1128916 2017-02-10 19:42:41 UTC (979 days ago)
1128920 2017-02-10 19:42:04 UTC (979 days ago)
1128904 2017-02-10 19:09:50 UTC (979 days ago)
1128907 2017-02-10 19:08:41 UTC (979 days ago)
1128896 2017-02-10 18:38:42 UTC (979 days ago)
1128895 2017-02-10 18:35:15 UTC (979 days ago)
1128888 2017-02-10 18:26:32 UTC (979 days ago)
1128882 2017-02-10 18:06:37 UTC (979 days ago)
1128880 2017-02-10 18:04:41 UTC (979 days ago)
1128883 2017-02-10 18:04:09 UTC (979 days ago)
1128876 2017-02-10 17:41:16 UTC (979 days ago)
1128871 2017-02-10 17:30:30 UTC (979 days ago)
1128873 2017-02-10 17:26:09 UTC (979 days ago)
1128858 2017-02-10 16:59:14 UTC (979 days ago)
1128856 2017-02-10 16:44:51 UTC (979 days ago)
1128844 2017-02-10 16:27:39 UTC (979 days ago)
1128842 2017-02-10 16:22:16 UTC (979 days ago)
1128840 2017-02-10 16:20:37 UTC (979 days ago)
1128838 2017-02-10 16:17:42 UTC (979 days ago)